createdAt,value
2022-09-04T00:03:55.730Z,20.73
2022-09-04T00:06:40.803Z,20.86
2022-09-04T00:10:24.596Z,21.36
2022-09-04T00:13:28.418Z,21.41
2022-09-04T00:16:23.675Z,21.48
2022-09-04T00:19:26.564Z,21.74
2022-09-04T00:22:08.873Z,22.20
2022-09-04T00:24:54.885Z,22.05
2022-09-04T00:27:44.355Z,22.26
2022-09-04T00:30:23.854Z,22.89
2022-09-04T00:33:17.622Z,23.55
2022-09-04T00:36:11.879Z,23.38
2022-09-04T00:38:59.603Z,23.15
2022-09-04T00:42:11.221Z,23.28
2022-09-04T00:44:54.180Z,22.88
2022-09-04T00:47:32.566Z,22.75
2022-09-04T00:54:20.487Z,22.56
2022-09-04T00:57:14.895Z,22.40
2022-09-04T00:59:56.239Z,22.48
2022-09-04T01:02:59.643Z,22.42
2022-09-04T01:05:41.628Z,22.66
2022-09-04T01:08:55.972Z,22.61
2022-09-04T01:11:33.017Z,22.63
2022-09-04T01:14:41.024Z,22.59
2022-09-04T01:17:51.061Z,22.64
2022-09-04T01:21:07.422Z,22.49
2022-09-04T01:23:58.532Z,22.28
2022-09-04T01:27:01.041Z,22.08
2022-09-04T01:29:50.513Z,21.99
2022-09-04T01:32:50.331Z,21.77
2022-09-04T01:35:30.347Z,21.59
2022-09-04T01:38:11.245Z,21.40
2022-09-04T01:40:43.286Z,21.30
2022-09-04T01:43:18.413Z,21.25
2022-09-04T01:46:24.282Z,21.02
2022-09-04T01:49:11.960Z,20.94
2022-09-04T01:51:44.924Z,20.85
2022-09-04T01:55:32.188Z,20.79
2022-09-04T01:58:43.061Z,20.63
2022-09-04T02:02:13.918Z,20.51
2022-09-04T02:05:24.498Z,20.40
2022-09-04T02:08:42.669Z,20.35
2022-09-04T02:11:45.198Z,20.21
2022-09-04T02:14:23.610Z,20.19
2022-09-04T02:17:29.005Z,20.14
2022-09-04T02:20:22.970Z,20.07
2022-09-04T02:23:07.222Z,19.93
2022-09-04T02:26:00.422Z,19.89
2022-09-04T02:28:43.951Z,19.89
2022-09-04T02:31:39.550Z,19.77
2022-09-04T02:34:59.343Z,19.78
2022-09-04T02:37:37.025Z,19.67
2022-09-04T02:40:06.226Z,19.64
2022-09-04T02:43:05.600Z,19.61
2022-09-04T02:45:43.519Z,19.52
2022-09-04T02:48:36.066Z,19.50
2022-09-04T02:51:32.421Z,19.47
2022-09-04T02:54:13.712Z,19.43
2022-09-04T02:56:59.494Z,19.36
2022-09-04T03:00:23.077Z,19.31
2022-09-04T03:03:22.253Z,19.23
2022-09-04T03:06:21.229Z,19.23
2022-09-04T03:09:08.778Z,19.16
2022-09-04T03:11:54.770Z,19.17
2022-09-04T03:14:43.800Z,19.15
2022-09-04T03:17:28.012Z,19.13
2022-09-04T03:20:04.780Z,19.15
2022-09-04T03:22:53.692Z,19.11
2022-09-04T03:25:57.937Z,19.03
2022-09-04T03:29:03.769Z,19.03
2022-09-04T03:31:59.473Z,19.01
2022-09-04T03:34:44.541Z,18.91
2022-09-04T03:37:20.915Z,18.85
2022-09-04T03:40:19.502Z,18.86
2022-09-04T03:43:17.558Z,18.77
2022-09-04T03:46:11.010Z,18.68
2022-09-04T03:49:38.105Z,18.70
2022-09-04T03:52:07.680Z,18.67
2022-09-04T03:54:51.610Z,18.57
2022-09-04T03:57:53.041Z,18.53
2022-09-04T04:00:23.369Z,18.51
2022-09-04T04:03:04.389Z,18.45
2022-09-04T04:06:20.180Z,18.43
2022-09-04T04:09:21.509Z,18.39
2022-09-04T04:12:14.101Z,18.23
2022-09-04T04:15:09.614Z,18.23
2022-09-04T04:18:01.044Z,18.26
2022-09-04T04:20:37.637Z,18.17
2022-09-04T04:23:25.067Z,18.33
2022-09-04T04:26:31.428Z,18.20
2022-09-04T04:29:09.477Z,18.27
2022-09-04T04:32:12.883Z,18.11
2022-09-04T04:35:03.078Z,18.23
2022-09-04T04:37:54.312Z,18.18
2022-09-04T04:40:46.471Z,18.08
2022-09-04T04:43:30.168Z,18.08
2022-09-04T04:46:37.692Z,17.93
2022-09-04T04:49:35.011Z,17.80
2022-09-04T04:52:17.777Z,17.87
2022-09-04T04:55:11.524Z,17.91
2022-09-04T04:58:16.749Z,17.83
2022-09-04T05:00:59.209Z,17.66
2022-09-04T05:03:49.421Z,17.53
2022-09-04T05:06:32.803Z,17.55
2022-09-04T05:09:41.431Z,17.45
2022-09-04T05:12:21.626Z,17.54
2022-09-04T05:14:50.719Z,17.63
2022-09-04T05:17:31.614Z,17.47
2022-09-04T05:20:22.550Z,17.19
2022-09-04T05:23:14.019Z,17.35
2022-09-04T05:26:03.427Z,17.36
2022-09-04T05:28:44.759Z,17.34
2022-09-04T05:31:24.186Z,17.42
2022-09-04T05:34:20.439Z,17.43
2022-09-04T05:37:04.328Z,17.50
2022-09-04T05:40:04.136Z,17.52
2022-09-04T05:42:46.428Z,17.50
2022-09-04T05:45:43.526Z,17.49
2022-09-04T05:48:15.960Z,17.53
2022-09-04T05:50:59.998Z,17.56
2022-09-04T05:53:31.852Z,17.59
2022-09-04T05:56:12.860Z,17.51
2022-09-04T05:58:58.974Z,17.46
2022-09-04T06:02:12.920Z,17.36
2022-09-04T06:05:02.318Z,17.36
2022-09-04T06:07:46.541Z,17.45
2022-09-04T06:10:39.585Z,17.39
2022-09-04T06:13:45.791Z,17.32
2022-09-04T06:16:45.158Z,17.24
2022-09-04T06:19:41.473Z,17.24
2022-09-04T06:22:48.098Z,17.25
2022-09-04T06:25:55.206Z,17.25
2022-09-04T06:28:30.314Z,17.25
2022-09-04T06:31:20.724Z,17.21
2022-09-04T06:34:28.439Z,17.10
2022-09-04T06:37:12.368Z,17.06
2022-09-04T06:40:12.260Z,17.05
2022-09-04T06:42:51.629Z,16.98
2022-09-04T06:45:34.240Z,16.97
2022-09-04T06:48:35.009Z,16.86
2022-09-04T06:51:32.206Z,16.73
2022-09-04T06:54:32.245Z,16.60
2022-09-04T06:57:12.746Z,16.42
2022-09-04T07:00:05.398Z,16.53
2022-09-04T07:03:10.584Z,16.59
2022-09-04T07:05:39.695Z,16.63
2022-09-04T07:08:08.705Z,16.64
2022-09-04T07:11:04.805Z,16.63
2022-09-04T07:13:40.401Z,16.53
2022-09-04T07:16:37.624Z,16.40
2022-09-04T07:20:02.825Z,16.40
2022-09-04T07:23:08.775Z,16.44
2022-09-04T07:26:01.575Z,16.48
2022-09-04T07:28:55.684Z,16.48
2022-09-04T07:31:46.772Z,16.39
2022-09-04T07:34:49.219Z,16.43
2022-09-04T07:37:44.781Z,16.43
2022-09-04T07:40:31.645Z,16.39
2022-09-04T07:43:10.354Z,16.24
2022-09-04T07:45:52.111Z,16.30
2022-09-04T07:48:36.432Z,16.30
2022-09-04T07:51:24.666Z,16.27
2022-09-04T07:54:24.911Z,16.07
2022-09-04T07:57:29.057Z,16.13
2022-09-04T08:00:17.637Z,16.18
2022-09-04T08:03:12.769Z,16.14
2022-09-04T08:06:15.053Z,16.12
2022-09-04T08:09:29.732Z,16.02
2022-09-04T08:12:11.496Z,15.93
2022-09-04T08:14:55.152Z,15.71
2022-09-04T08:17:54.738Z,15.59
2022-09-04T08:20:32.787Z,15.94
2022-09-04T08:23:36.411Z,15.74
2022-09-04T08:26:29.013Z,15.80
2022-09-04T08:29:27.083Z,15.69
2022-09-04T08:32:11.217Z,15.59
2022-09-04T08:35:01.727Z,15.84
2022-09-04T08:37:57.533Z,15.74
2022-09-04T08:40:52.721Z,15.69
2022-09-04T08:43:47.483Z,15.63
2022-09-04T08:46:40.952Z,15.46
2022-09-04T08:49:11.292Z,15.39
2022-09-04T08:51:59.550Z,15.45
2022-09-04T08:54:59.955Z,15.62
2022-09-04T08:57:41.139Z,15.71
2022-09-04T09:00:13.435Z,15.56
2022-09-04T09:03:07.240Z,15.72
2022-09-04T09:05:56.587Z,15.79
2022-09-04T09:08:50.479Z,15.84
2022-09-04T09:11:46.927Z,15.79
2022-09-04T09:14:54.017Z,15.68
2022-09-04T09:17:54.791Z,15.65
2022-09-04T09:20:30.144Z,15.60
2022-09-04T09:23:21.057Z,15.66
2022-09-04T09:25:50.215Z,15.74
2022-09-04T09:28:42.192Z,15.90
2022-09-04T09:31:48.596Z,15.84
2022-09-04T09:34:42.572Z,15.84
2022-09-04T09:37:23.925Z,15.78
2022-09-04T09:40:09.577Z,15.79
2022-09-04T09:42:56.846Z,15.79
2022-09-04T09:45:45.487Z,15.78
2022-09-04T09:48:48.509Z,15.69
2022-09-04T09:51:35.773Z,15.64
2022-09-04T09:54:31.222Z,15.62
2022-09-04T09:57:18.084Z,15.51
2022-09-04T10:00:15.596Z,15.45
2022-09-04T10:02:56.650Z,15.46
2022-09-04T10:05:43.921Z,15.46
2022-09-04T10:08:35.765Z,15.41
2022-09-04T10:11:29.805Z,15.38
2022-09-04T10:14:36.076Z,15.32
2022-09-04T10:17:29.747Z,15.26
2022-09-04T10:20:17.086Z,15.26
2022-09-04T10:22:48.859Z,15.23
2022-09-04T10:25:24.756Z,15.14
2022-09-04T10:28:18.557Z,15.09
2022-09-04T10:31:18.042Z,15.02
2022-09-04T10:34:02.359Z,15.00
2022-09-04T10:36:49.205Z,14.99
2022-09-04T10:40:05.037Z,14.95
2022-09-04T10:42:46.330Z,14.94
2022-09-04T10:45:28.455Z,14.97
2022-09-04T10:48:26.564Z,14.98
2022-09-04T10:51:13.833Z,14.87
2022-09-04T10:54:05.452Z,14.81
2022-09-04T10:56:51.427Z,14.79
2022-09-04T10:59:47.400Z,14.74
2022-09-04T11:02:34.783Z,14.69
2022-09-04T11:05:19.683Z,14.62
2022-09-04T11:08:01.003Z,14.59
2022-09-04T11:10:42.980Z,14.59
2022-09-04T11:13:17.763Z,14.62
2022-09-04T11:15:48.810Z,14.62
2022-09-04T11:18:41.494Z,14.55
2022-09-04T11:21:47.744Z,14.57
2022-09-04T11:25:01.563Z,14.50
2022-09-04T11:27:59.987Z,14.54
2022-09-04T11:30:39.961Z,14.54
2022-09-04T11:33:33.623Z,14.51
2022-09-04T11:36:46.144Z,14.47
2022-09-04T11:39:27.688Z,14.40
2022-09-04T11:42:09.228Z,14.45
2022-09-04T11:44:40.942Z,14.38
2022-09-04T11:47:41.785Z,14.31
2022-09-04T11:50:39.544Z,14.32
2022-09-04T11:53:23.031Z,14.31
2022-09-04T11:56:23.758Z,14.17
2022-09-04T11:59:11.347Z,14.02
2022-09-04T12:01:49.723Z,14.05
2022-09-04T12:04:29.197Z,13.94
2022-09-04T12:07:26.712Z,13.78
2022-09-04T12:10:10.937Z,13.70
2022-09-04T12:13:15.052Z,13.95
2022-09-04T12:16:01.779Z,13.93
2022-09-04T12:18:55.280Z,13.97
2022-09-04T12:22:06.792Z,13.83
2022-09-04T12:24:46.840Z,14.05
2022-09-04T12:27:34.745Z,13.75
2022-09-04T12:30:06.702Z,13.54
2022-09-04T12:32:56.785Z,13.67
2022-09-04T12:35:35.597Z,13.67
2022-09-04T12:38:38.495Z,13.80
2022-09-04T12:41:18.544Z,13.78
2022-09-04T12:44:27.397Z,13.62
2022-09-04T12:47:02.983Z,13.45
2022-09-04T12:49:54.428Z,13.64
2022-09-04T12:52:52.058Z,13.62
2022-09-04T12:55:23.847Z,13.51
2022-09-04T12:58:13.086Z,13.37
2022-09-04T13:00:57.445Z,13.31
2022-09-04T13:03:33.808Z,13.26
2022-09-04T13:06:28.351Z,13.64
2022-09-04T13:09:30.807Z,13.77
2022-09-04T13:12:20.867Z,13.89
2022-09-04T13:15:05.299Z,13.90
2022-09-04T13:18:08.398Z,13.93
2022-09-04T13:21:06.342Z,14.05
2022-09-04T13:23:53.619Z,14.19
2022-09-04T13:26:47.988Z,14.26
2022-09-04T13:29:36.967Z,14.27
2022-09-04T13:32:47.661Z,14.28
2022-09-04T13:35:48.223Z,14.21
2022-09-04T13:38:44.785Z,14.22
2022-09-04T13:41:30.289Z,14.17
2022-09-04T13:44:19.370Z,14.08
2022-09-04T13:47:00.988Z,14.12
2022-09-04T13:49:45.159Z,14.12
2022-09-04T13:52:25.129Z,14.16
2022-09-04T13:55:28.566Z,14.09
2022-09-04T13:58:15.164Z,14.08
2022-09-04T14:00:50.371Z,14.11
2022-09-04T14:03:34.667Z,14.20
2022-09-04T14:06:07.192Z,14.22
2022-09-04T14:08:40.611Z,14.19
2022-09-04T14:11:33.304Z,14.21
2022-09-04T14:14:08.262Z,14.15
2022-09-04T14:16:40.856Z,14.10
2022-09-04T14:19:51.870Z,14.09
2022-09-04T14:22:35.858Z,14.08
2022-09-04T14:25:15.666Z,14.24
2022-09-04T14:27:59.739Z,14.31
2022-09-04T14:30:32.487Z,14.35
2022-09-04T14:33:35.853Z,14.39
2022-09-04T14:36:08.315Z,14.35
2022-09-04T14:38:57.513Z,14.35
2022-09-04T14:41:49.484Z,14.33
2022-09-04T14:44:25.973Z,14.40
2022-09-04T14:47:28.060Z,14.42
2022-09-04T14:50:03.048Z,14.50
2022-09-04T14:52:55.678Z,14.55
2022-09-04T14:55:31.327Z,14.63
2022-09-04T14:58:34.022Z,14.71
2022-09-04T15:01:10.331Z,14.73
2022-09-04T15:03:52.905Z,14.74
2022-09-04T15:07:10.248Z,14.75
2022-09-04T15:09:49.526Z,14.83
2022-09-04T15:12:33.707Z,14.85
2022-09-04T15:15:08.609Z,14.86
2022-09-04T15:17:41.429Z,14.98
2022-09-04T15:20:36.951Z,15.06
2022-09-04T15:23:23.099Z,15.14
2022-09-04T15:26:03.796Z,15.17
2022-09-04T15:28:56.542Z,15.30
2022-09-04T15:31:39.254Z,15.49
2022-09-04T15:34:13.913Z,15.46
2022-09-04T15:36:43.324Z,15.58
2022-09-04T15:39:24.436Z,15.73
2022-09-04T15:41:53.578Z,15.97
2022-09-04T15:44:41.510Z,16.22
2022-09-04T15:47:19.637Z,16.39
2022-09-04T15:50:03.136Z,16.45
2022-09-04T15:52:41.161Z,16.28
2022-09-04T15:55:34.805Z,16.26
2022-09-04T15:58:15.622Z,16.33
2022-09-04T16:01:07.336Z,16.43
2022-09-04T16:03:53.962Z,16.52
2022-09-04T16:06:32.995Z,16.51
2022-09-04T16:09:12.005Z,16.53
2022-09-04T16:11:48.144Z,16.68
2022-09-04T16:14:27.316Z,16.70
2022-09-04T16:17:30.112Z,16.70
2022-09-04T16:20:05.303Z,16.79
2022-09-04T16:22:44.864Z,16.85
2022-09-04T16:25:32.048Z,16.90
2022-09-04T16:28:13.157Z,16.94
2022-09-04T16:30:47.986Z,16.98
2022-09-04T16:33:46.150Z,17.01
2022-09-04T16:36:44.961Z,17.30
2022-09-04T16:39:29.893Z,17.69
2022-09-04T16:42:24.832Z,17.78
2022-09-04T16:45:30.484Z,17.78
2022-09-04T16:48:33.960Z,17.91
2022-09-04T16:51:40.661Z,18.06
2022-09-04T16:54:14.280Z,18.42
2022-09-04T16:56:51.161Z,18.72
2022-09-04T16:59:36.702Z,18.70
2022-09-04T17:02:22.494Z,18.88
2022-09-04T17:05:19.555Z,18.88
2022-09-04T17:08:13.846Z,19.15
2022-09-04T17:10:58.800Z,19.35
2022-09-04T17:13:39.652Z,19.39
2022-09-04T17:16:23.583Z,19.43
2022-09-04T17:18:55.610Z,19.63
2022-09-04T17:26:52.309Z,19.75
2022-09-04T17:29:09.935Z,19.94
2022-09-04T17:29:13.815Z,19.86
2022-09-04T17:31:53.885Z,20.05
2022-09-04T17:40:35.449Z,20.12
2022-09-04T17:40:55.964Z,20.24
2022-09-04T17:41:37.962Z,20.55
2022-09-04T17:44:31.118Z,20.74
2022-09-04T17:47:12.489Z,20.95
2022-09-04T17:49:49.993Z,21.09
2022-09-04T17:52:37.921Z,21.34
2022-09-04T17:55:12.304Z,21.58
2022-09-04T17:58:06.988Z,21.69
2022-09-04T18:01:15.161Z,21.68
2022-09-04T18:04:21.039Z,21.87
2022-09-04T18:07:29.017Z,21.93
2022-09-04T18:10:04.696Z,21.82
2022-09-04T18:12:37.921Z,21.88
2022-09-04T18:15:33.924Z,22.07
2022-09-04T18:18:13.714Z,22.18
2022-09-04T18:21:06.969Z,22.35
2022-09-04T18:23:51.349Z,22.05
2022-09-04T18:26:42.163Z,22.14
2022-09-04T18:31:37.079Z,22.20
2022-09-04T18:37:19.451Z,22.36
2022-09-04T18:37:21.336Z,22.32
2022-09-04T18:38:42.658Z,22.41
2022-09-04T18:45:57.820Z,22.38
2022-09-04T18:50:29.499Z,22.38
2022-09-04T18:50:33.992Z,22.42
2022-09-04T18:50:53.074Z,22.44
2022-09-04T18:53:40.787Z,22.45
2022-09-04T18:56:23.418Z,22.42
2022-09-04T18:59:25.557Z,22.37
2022-09-04T19:02:14.580Z,22.40
2022-09-04T19:05:09.646Z,22.45
2022-09-04T19:08:00.584Z,22.52
2022-09-04T19:10:44.427Z,22.40
2022-09-04T19:13:37.012Z,22.37
2022-09-04T19:16:19.347Z,22.35
2022-09-04T19:18:56.898Z,22.37
2022-09-04T19:21:58.733Z,22.50
2022-09-04T19:24:57.431Z,22.47
2022-09-04T19:27:55.162Z,22.62
2022-09-04T19:30:45.133Z,22.80
2022-09-04T19:33:54.310Z,22.73
2022-09-04T19:36:45.704Z,22.57
2022-09-04T19:43:51.303Z,22.31
2022-09-04T19:46:00.851Z,22.22
2022-09-04T19:46:25.901Z,22.20
2022-09-04T19:50:30.666Z,22.16
2022-09-04T19:53:40.658Z,22.15
2022-09-04T19:55:24.657Z,22.05
2022-09-04T19:58:31.420Z,22.09
2022-09-04T20:01:04.155Z,22.09
2022-09-04T20:03:47.500Z,22.17
2022-09-04T20:06:30.980Z,22.35
2022-09-04T20:09:08.265Z,22.36
2022-09-04T20:11:53.183Z,22.39
2022-09-04T20:14:30.197Z,22.41
2022-09-04T20:17:24.241Z,22.81
2022-09-04T20:19:58.867Z,22.90
2022-09-04T20:22:46.195Z,22.91
2022-09-04T20:25:33.472Z,22.87
2022-09-04T20:28:19.036Z,22.63
2022-09-04T20:31:35.443Z,22.80
2022-09-04T20:34:08.209Z,22.56
2022-09-04T20:36:49.011Z,22.75
2022-09-04T20:39:48.635Z,23.15
2022-09-04T20:42:32.118Z,22.89
2022-09-04T20:48:09.027Z,23.03
2022-09-04T20:52:48.615Z,23.04
2022-09-04T20:52:56.253Z,23.11
2022-09-04T20:54:28.878Z,23.03
2022-09-04T21:02:07.913Z,22.98
2022-09-04T21:03:10.862Z,23.17
2022-09-04T21:03:28.787Z,23.30
2022-09-04T21:06:11.177Z,23.42
2022-09-04T21:09:07.359Z,23.58
2022-09-04T21:11:51.430Z,23.45
2022-09-04T21:14:44.899Z,23.56
2022-09-04T21:17:55.270Z,23.66
2022-09-04T21:20:36.178Z,23.65
2022-09-04T21:23:25.771Z,23.65
2022-09-04T21:26:04.270Z,23.65
2022-09-04T21:28:48.370Z,23.69
2022-09-04T21:31:37.786Z,23.57
2022-09-04T21:34:43.439Z,23.68
2022-09-04T21:37:27.811Z,23.64
2022-09-04T21:40:50.389Z,23.46
2022-09-04T21:43:17.771Z,23.38
2022-09-04T21:46:13.302Z,23.30
2022-09-04T21:48:52.312Z,23.50
2022-09-04T21:51:37.194Z,23.37
2022-09-04T21:54:31.187Z,23.38
2022-09-04T22:02:35.463Z,23.32
2022-09-04T22:02:42.952Z,23.34
2022-09-04T22:03:32.170Z,23.45
2022-09-04T22:07:05.278Z,23.53
2022-09-04T22:13:34.477Z,23.52
2022-09-04T22:13:38.964Z,23.29
2022-09-04T22:15:30.605Z,23.37
2022-09-04T22:18:28.406Z,23.22
2022-09-04T22:21:26.726Z,23.02
2022-09-04T22:24:06.396Z,23.11
2022-09-04T22:26:54.057Z,23.03
2022-09-04T22:29:43.266Z,22.95
2022-09-04T22:32:30.939Z,22.93
2022-09-04T22:35:35.802Z,22.97
2022-09-04T22:38:23.861Z,22.79
2022-09-04T22:41:34.655Z,22.75
2022-09-04T22:44:29.561Z,22.62
2022-09-04T22:47:28.648Z,22.59
2022-09-04T22:50:09.704Z,22.61
2022-09-04T22:52:49.851Z,22.61
2022-09-04T22:55:39.612Z,22.51
2022-09-04T22:58:23.231Z,22.62
2022-09-04T23:01:29.786Z,22.62
2022-09-04T23:04:17.211Z,22.57
2022-09-04T23:11:05.690Z,22.50
2022-09-04T23:13:52.401Z,22.45
2022-09-04T23:13:54.156Z,22.57
2022-09-04T23:16:27.932Z,22.55
2022-09-04T23:24:08.740Z,22.61
2022-09-04T23:26:34.275Z,22.59
2022-09-04T23:26:57.833Z,22.57
2022-09-04T23:28:38.107Z,22.59
2022-09-04T23:31:12.410Z,22.77
2022-09-04T23:33:57.135Z,22.80
2022-09-04T23:36:34.308Z,22.95
2022-09-04T23:39:28.127Z,22.93
2022-09-04T23:42:15.278Z,23.00
2022-09-04T23:45:11.402Z,23.04
2022-09-04T23:48:11.381Z,23.15
2022-09-04T23:51:02.679Z,23.20
2022-09-04T23:54:25.398Z,23.05
2022-09-04T23:57:26.141Z,23.02
